createdAt,value
2022-11-13T00:01:52.622Z,14.80
2022-11-13T00:04:40.535Z,14.80
2022-11-13T00:07:28.001Z,14.80
2022-11-13T00:10:14.394Z,14.80
2022-11-13T00:13:00.892Z,14.90
2022-11-13T00:15:57.702Z,14.90
2022-11-13T00:18:44.342Z,14.90
2022-11-13T00:21:32.183Z,15.00
2022-11-13T00:24:18.842Z,15.10
2022-11-13T00:27:05.451Z,15.20
2022-11-13T00:29:51.983Z,15.20
2022-11-13T00:32:40.363Z,15.30
2022-11-13T00:35:26.778Z,15.20
2022-11-13T00:38:15.002Z,15.20
2022-11-13T00:41:01.931Z,15.20
2022-11-13T00:43:48.673Z,15.10
2022-11-13T00:46:35.453Z,15.10
2022-11-13T00:49:21.763Z,15.10
2022-11-13T00:52:08.543Z,15.10
2022-11-13T00:54:56.342Z,15.00
2022-11-13T00:57:42.683Z,14.90
2022-11-13T01:00:29.443Z,14.90
2022-11-13T01:03:17.462Z,14.80
2022-11-13T01:06:10.874Z,14.80
2022-11-13T01:08:59.961Z,14.70
2022-11-13T01:11:47.872Z,14.80
2022-11-13T01:14:34.411Z,14.80
2022-11-13T01:17:20.893Z,14.80
2022-11-13T01:20:07.853Z,14.80
2022-11-13T01:22:54.233Z,14.80
2022-11-13T01:25:40.843Z,14.80
2022-11-13T01:28:28.956Z,14.80
2022-11-13T01:31:17.848Z,14.70
2022-11-13T01:34:04.224Z,14.70
2022-11-13T01:36:51.444Z,14.60
2022-11-13T01:39:38.137Z,14.40
2022-11-13T01:42:25.083Z,14.20
2022-11-13T01:45:48.755Z,14.10
2022-11-13T01:48:40.394Z,14.00
2022-11-13T01:51:30.566Z,13.90
2022-11-13T01:54:19.538Z,13.80
2022-11-13T01:57:07.162Z,13.80
2022-11-13T01:59:58.490Z,13.70
2022-11-13T02:02:45.119Z,13.60
2022-11-13T02:05:33.105Z,13.50
2022-11-13T02:08:19.432Z,13.50
2022-11-13T02:11:06.222Z,13.50
2022-11-13T02:13:52.897Z,13.50
2022-11-13T02:16:40.737Z,13.50
2022-11-13T02:19:31.988Z,13.40
2022-11-13T02:22:26.347Z,13.50
2022-11-13T02:25:14.769Z,13.40
2022-11-13T02:28:01.811Z,13.50
2022-11-13T02:30:48.060Z,13.40
2022-11-13T02:33:34.483Z,13.10
2022-11-13T02:36:23.203Z,13.10
2022-11-13T02:39:11.776Z,13.10
2022-11-13T02:41:59.732Z,13.10
2022-11-13T02:44:45.936Z,13.10
2022-11-13T02:47:32.715Z,13.00
2022-11-13T02:50:19.231Z,13.00
2022-11-13T02:53:06.285Z,13.10
2022-11-13T02:55:52.729Z,13.00
2022-11-13T02:58:40.746Z,13.00
2022-11-13T03:01:27.218Z,13.00
2022-11-13T03:04:13.824Z,13.00
2022-11-13T03:07:09.073Z,12.90
2022-11-13T03:09:57.084Z,12.90
2022-11-13T03:12:43.299Z,12.90
2022-11-13T03:15:31.230Z,12.80
2022-11-13T03:18:17.673Z,12.70
2022-11-13T03:21:08.269Z,12.70
2022-11-13T03:23:55.455Z,12.70
2022-11-13T03:26:41.947Z,12.70
2022-11-13T03:29:28.507Z,12.60
2022-11-13T03:32:16.592Z,12.60
2022-11-13T03:35:03.182Z,12.60
2022-11-13T03:37:49.733Z,12.60
2022-11-13T03:40:36.379Z,12.50
2022-11-13T03:43:23.093Z,12.50
2022-11-13T03:46:09.637Z,12.40
2022-11-13T03:48:57.359Z,12.40
2022-11-13T03:51:43.400Z,12.30
2022-11-13T03:54:29.908Z,12.30
2022-11-13T03:57:16.625Z,12.40
2022-11-13T04:00:03.119Z,12.30
2022-11-13T04:02:49.615Z,12.20
2022-11-13T04:05:38.099Z,12.30
2022-11-13T04:08:24.596Z,12.30
2022-11-13T04:11:12.824Z,12.20
2022-11-13T04:13:59.274Z,12.20
2022-11-13T04:16:45.834Z,12.20
2022-11-13T04:19:32.043Z,12.30
2022-11-13T04:22:20.186Z,12.30
2022-11-13T04:25:07.118Z,12.20
2022-11-13T04:27:54.045Z,12.20
2022-11-13T04:30:40.308Z,12.20
2022-11-13T04:33:26.862Z,12.20
2022-11-13T04:36:13.219Z,12.20
2022-11-13T04:39:01.161Z,12.10
2022-11-13T04:42:05.727Z,12.10
2022-11-13T04:44:52.167Z,12.00
2022-11-13T04:47:38.647Z,12.00
2022-11-13T04:50:25.462Z,12.00
2022-11-13T04:53:11.639Z,12.00
2022-11-13T04:55:59.408Z,12.00
2022-11-13T04:58:45.660Z,12.00
2022-11-13T05:01:32.180Z,12.00
2022-11-13T05:04:18.592Z,12.00
2022-11-13T05:07:05.389Z,12.00
2022-11-13T05:09:51.740Z,12.00
2022-11-13T05:12:39.686Z,12.00
2022-11-13T05:15:26.950Z,12.00
2022-11-13T05:18:13.396Z,12.00
2022-11-13T05:21:00.023Z,12.00
2022-11-13T05:23:46.564Z,12.00
2022-11-13T05:26:32.900Z,12.00
2022-11-13T05:29:21.282Z,11.90
2022-11-13T05:32:07.462Z,11.90
2022-11-13T05:34:53.826Z,11.90
2022-11-13T05:37:40.311Z,11.90
2022-11-13T05:40:26.779Z,11.80
2022-11-13T05:43:13.272Z,11.80
2022-11-13T05:46:06.143Z,11.70
2022-11-13T05:48:55.120Z,11.70
2022-11-13T05:51:41.587Z,11.70
2022-11-13T05:54:28.243Z,11.70
2022-11-13T05:57:14.498Z,11.90
2022-11-13T06:00:00.905Z,11.90
2022-11-13T06:02:49.024Z,11.90
2022-11-13T06:05:35.868Z,11.80
2022-11-13T06:08:22.278Z,11.80
2022-11-13T06:11:10.835Z,11.70
2022-11-13T06:13:58.013Z,11.60
2022-11-13T06:16:43.972Z,11.60
2022-11-13T06:19:31.864Z,11.60
2022-11-13T06:22:18.022Z,11.60
2022-11-13T06:25:04.794Z,11.50
2022-11-13T06:27:51.206Z,11.50
2022-11-13T06:30:37.792Z,11.50
2022-11-13T06:33:24.268Z,11.50
2022-11-13T06:36:14.723Z,11.50
2022-11-13T06:39:01.338Z,11.40
2022-11-13T06:41:47.931Z,11.40
2022-11-13T06:44:34.252Z,11.50
2022-11-13T06:47:20.805Z,11.50
2022-11-13T06:50:08.653Z,11.70
2022-11-13T06:52:56.725Z,11.70
2022-11-13T06:55:47.584Z,11.90
2022-11-13T06:58:34.205Z,12.10
2022-11-13T07:01:22.204Z,12.20
2022-11-13T07:04:11.678Z,12.20
2022-11-13T07:06:57.963Z,12.20
2022-11-13T07:09:46.048Z,12.30
2022-11-13T07:12:32.329Z,12.40
2022-11-13T07:15:18.936Z,12.50
2022-11-13T07:18:07.126Z,12.60
2022-11-13T07:20:53.414Z,12.60
2022-11-13T07:23:43.635Z,12.70
2022-11-13T07:26:31.836Z,12.80
2022-11-13T07:29:18.615Z,13.00
2022-11-13T07:32:05.448Z,13.20
2022-11-13T07:34:52.116Z,13.30
2022-11-13T07:37:38.700Z,13.40
2022-11-13T07:40:25.066Z,13.40
2022-11-13T07:43:12.994Z,13.40
2022-11-13T07:46:00.123Z,13.40
2022-11-13T07:48:46.124Z,13.50
2022-11-13T07:51:32.685Z,13.60
2022-11-13T07:54:19.254Z,13.60
2022-11-13T07:57:05.835Z,13.70
2022-11-13T07:59:53.557Z,13.80
2022-11-13T08:02:40.126Z,13.90
2022-11-13T08:05:26.518Z,14.00
2022-11-13T08:08:13.860Z,14.20
2022-11-13T08:11:05.364Z,14.30
2022-11-13T08:13:53.022Z,14.30
2022-11-13T08:16:41.293Z,14.40
2022-11-13T08:19:27.805Z,14.60
2022-11-13T08:22:14.315Z,14.70
2022-11-13T08:25:01.002Z,14.80
2022-11-13T08:27:47.486Z,14.90
2022-11-13T08:30:33.980Z,14.90
2022-11-13T08:33:22.735Z,15.00
2022-11-13T08:36:10.605Z,15.10
2022-11-13T08:39:55.892Z,15.00
2022-11-13T08:42:42.457Z,15.00
2022-11-13T08:45:29.978Z,15.20
2022-11-13T08:48:16.557Z,15.40
2022-11-13T08:51:04.987Z,15.60
2022-11-13T08:53:52.088Z,15.70
2022-11-13T08:56:38.739Z,15.90
2022-11-13T08:59:25.509Z,16.10
2022-11-13T09:02:15.009Z,16.20
2022-11-13T09:05:01.517Z,16.40
2022-11-13T09:07:49.579Z,16.30
2022-11-13T09:10:36.150Z,16.30
2022-11-13T09:13:22.489Z,16.40
2022-11-13T09:16:09.429Z,16.30
2022-11-13T09:18:55.979Z,16.40
2022-11-13T09:21:43.060Z,16.80
2022-11-13T09:24:30.937Z,17.00
2022-11-13T09:27:17.665Z,17.30
2022-11-13T09:30:04.490Z,17.60
2022-11-13T09:32:54.867Z,17.70
2022-11-13T09:35:42.321Z,17.80
2022-11-13T09:38:32.282Z,17.90
2022-11-13T09:41:23.686Z,18.10
2022-11-13T09:44:17.884Z,18.10
2022-11-13T09:47:09.605Z,18.00
2022-11-13T09:50:03.144Z,17.80
2022-11-13T09:52:50.452Z,17.80
2022-11-13T09:55:42.143Z,17.60
2022-11-13T09:58:43.033Z,17.50
2022-11-13T10:01:41.727Z,17.50
2022-11-13T10:04:49.986Z,17.50
2022-11-13T10:07:41.588Z,17.50
2022-11-13T10:10:46.579Z,17.60
2022-11-13T10:13:44.295Z,17.70
2022-11-13T10:16:34.075Z,17.90
2022-11-13T10:19:27.453Z,17.90
2022-11-13T10:22:34.236Z,17.90
2022-11-13T10:25:22.864Z,17.90
2022-11-13T10:28:43.691Z,17.90
2022-11-13T10:31:24.688Z,18.00
2022-11-13T10:34:13.215Z,18.00
2022-11-13T10:37:17.548Z,18.00
2022-11-13T10:40:04.508Z,18.00
2022-11-13T10:42:50.772Z,18.20
2022-11-13T10:45:37.430Z,18.20
2022-11-13T10:48:28.021Z,18.20
2022-11-13T10:51:24.665Z,18.40
2022-11-13T10:54:24.659Z,18.70
2022-11-13T10:57:28.391Z,18.90
2022-11-13T11:00:24.663Z,19.00
2022-11-13T11:03:16.237Z,19.10
2022-11-13T11:06:06.004Z,18.90
2022-11-13T11:08:52.536Z,18.80
2022-11-13T11:11:57.603Z,18.70
2022-11-13T11:15:03.121Z,18.60
2022-11-13T11:17:51.898Z,18.60
2022-11-13T11:20:45.376Z,18.70
2022-11-13T11:23:56.042Z,18.60
2022-11-13T11:26:47.764Z,18.60
2022-11-13T11:29:39.699Z,18.40
2022-11-13T11:32:32.735Z,18.40
2022-11-13T11:35:22.799Z,18.40
2022-11-13T11:38:15.805Z,18.30
2022-11-13T11:41:16.266Z,18.30
2022-11-13T11:44:15.611Z,18.20
2022-11-13T11:47:02.094Z,18.20
2022-11-13T11:49:48.551Z,18.10
2022-11-13T11:52:54.167Z,18.00
2022-11-13T11:56:16.747Z,17.90
2022-11-13T11:59:12.998Z,17.90
2022-11-13T12:02:36.004Z,17.90
2022-11-13T12:05:25.156Z,17.90
2022-11-13T12:08:22.478Z,17.80
2022-11-13T12:11:21.157Z,17.80
2022-11-13T12:14:21.531Z,17.80
2022-11-13T12:17:22.888Z,17.80
2022-11-13T12:20:23.798Z,17.90
2022-11-13T12:23:22.374Z,17.90
2022-11-13T12:26:18.019Z,17.90
2022-11-13T12:29:15.907Z,17.90
2022-11-13T12:32:14.750Z,17.90
2022-11-13T12:35:08.018Z,17.90
2022-11-13T12:37:58.603Z,17.90
2022-11-13T12:41:18.545Z,17.90
2022-11-13T12:44:22.312Z,17.80
2022-11-13T12:47:09.029Z,17.80
2022-11-13T12:50:04.102Z,17.80
2022-11-13T12:53:00.807Z,17.70
2022-11-13T12:55:57.052Z,17.60
2022-11-13T12:59:15.412Z,17.60
2022-11-13T13:02:42.806Z,17.60
2022-11-13T13:05:51.676Z,17.50
2022-11-13T13:09:06.711Z,17.40
2022-11-13T13:12:01.487Z,17.40
2022-11-13T13:15:16.235Z,17.40
2022-11-13T13:18:24.551Z,17.30
2022-11-13T13:21:12.792Z,17.30
2022-11-13T13:24:07.971Z,17.20
2022-11-13T13:26:54.960Z,17.20
2022-11-13T13:29:41.497Z,17.20
2022-11-13T13:32:36.379Z,17.10
2022-11-13T13:35:29.990Z,17.10
2022-11-13T13:38:24.659Z,17.10
2022-11-13T13:41:26.170Z,17.00
2022-11-13T13:44:32.991Z,17.00
2022-11-13T13:47:25.760Z,17.00
2022-11-13T13:50:19.883Z,17.00
2022-11-13T13:53:09.336Z,16.90
2022-11-13T13:55:56.961Z,16.90
2022-11-13T13:58:43.712Z,16.80
2022-11-13T14:01:31.748Z,16.80
2022-11-13T14:04:21.015Z,16.80
2022-11-13T14:07:21.027Z,16.80
2022-11-13T14:10:16.502Z,16.70
2022-11-13T14:13:03.815Z,16.70
2022-11-13T14:15:59.824Z,16.70
2022-11-13T14:18:46.348Z,16.60
2022-11-13T14:21:43.136Z,16.60
2022-11-13T14:24:34.334Z,16.60
2022-11-13T14:27:24.951Z,16.60
2022-11-13T14:30:24.067Z,16.60
2022-11-13T14:33:13.763Z,16.60
2022-11-13T14:36:00.728Z,16.60
2022-11-13T14:38:52.207Z,16.50
2022-11-13T14:41:45.953Z,16.50
2022-11-13T14:44:35.053Z,16.50
2022-11-13T14:47:37.835Z,16.50
2022-11-13T14:50:26.776Z,16.50
2022-11-13T14:53:13.399Z,16.50
2022-11-13T14:56:02.310Z,16.50
2022-11-13T14:58:48.368Z,16.40
2022-11-13T15:01:36.802Z,16.40
2022-11-13T15:04:23.215Z,16.40
2022-11-13T15:07:28.656Z,16.40
2022-11-13T15:10:17.435Z,16.30
2022-11-13T15:13:10.924Z,16.30
2022-11-13T15:15:57.875Z,16.30
2022-11-13T15:18:49.774Z,16.20
2022-11-13T15:21:36.085Z,16.20
2022-11-13T15:24:22.774Z,16.20
2022-11-13T15:27:13.104Z,16.30
2022-11-13T15:29:59.915Z,16.30
2022-11-13T15:32:46.272Z,16.30
2022-11-13T15:35:33.904Z,16.20
2022-11-13T15:38:20.098Z,16.20
2022-11-13T15:41:11.978Z,16.20
2022-11-13T15:43:59.438Z,16.10
2022-11-13T15:46:45.735Z,16.10
2022-11-13T15:49:31.945Z,16.10
2022-11-13T15:52:20.607Z,16.10
2022-11-13T15:55:17.628Z,16.00
2022-11-13T15:58:04.329Z,16.00
2022-11-13T16:00:50.819Z,16.00
2022-11-13T16:03:40.313Z,16.00
2022-11-13T16:06:28.385Z,15.90
2022-11-13T16:09:16.522Z,15.90
2022-11-13T16:12:03.038Z,15.90
2022-11-13T16:14:49.348Z,15.90
2022-11-13T16:17:44.540Z,15.90
2022-11-13T16:20:31.387Z,15.80
2022-11-13T16:23:18.467Z,15.80
2022-11-13T16:26:06.759Z,15.80
2022-11-13T16:32:01.627Z,15.80
2022-11-13T16:34:48.358Z,15.80
2022-11-13T16:37:35.609Z,15.80
2022-11-13T16:40:22.836Z,15.80
2022-11-13T16:43:11.524Z,15.80
2022-11-13T16:46:00.685Z,15.80
2022-11-13T16:48:47.744Z,15.80
2022-11-13T16:51:34.345Z,15.70
2022-11-13T16:54:20.776Z,15.70
2022-11-13T16:57:09.386Z,15.80
2022-11-13T16:59:57.752Z,15.80
2022-11-13T17:02:44.703Z,15.80
2022-11-13T17:05:31.899Z,15.90
2022-11-13T17:08:18.111Z,15.80
2022-11-13T17:11:04.778Z,15.80
2022-11-13T17:13:52.032Z,15.80
2022-11-13T17:16:39.742Z,15.80
2022-11-13T17:19:25.944Z,15.70
2022-11-13T17:22:13.526Z,15.80
2022-11-13T17:24:59.873Z,15.80
2022-11-13T17:27:46.495Z,15.80
2022-11-13T17:30:33.497Z,15.70
2022-11-13T17:33:21.480Z,15.70
2022-11-13T17:36:09.274Z,15.70
2022-11-13T17:38:55.697Z,15.70
2022-11-13T17:41:42.294Z,15.60
2022-11-13T17:44:29.201Z,15.60
2022-11-13T17:47:15.749Z,15.60
2022-11-13T17:50:07.568Z,15.50
2022-11-13T17:52:54.681Z,15.50
2022-11-13T17:55:40.904Z,15.50
2022-11-13T17:58:28.701Z,15.40
2022-11-13T18:01:16.922Z,15.50
2022-11-13T18:04:03.711Z,15.50
2022-11-13T18:06:51.765Z,15.50
2022-11-13T18:09:38.341Z,15.50
2022-11-13T18:12:24.995Z,15.50
2022-11-13T18:15:11.626Z,15.50
2022-11-13T18:17:58.195Z,15.40
2022-11-13T18:20:45.055Z,15.30
2022-11-13T18:23:33.544Z,15.30
2022-11-13T18:26:30.676Z,15.30
2022-11-13T18:29:17.705Z,15.20
2022-11-13T18:32:05.208Z,15.20
2022-11-13T18:34:51.666Z,15.10
2022-11-13T18:37:38.825Z,15.10
2022-11-13T18:40:26.908Z,15.10
2022-11-13T18:43:15.724Z,15.10
2022-11-13T18:46:07.386Z,15.10
2022-11-13T18:48:56.966Z,15.10
2022-11-13T18:51:44.363Z,15.10
2022-11-13T18:54:30.914Z,15.10
2022-11-13T18:57:19.398Z,15.10
2022-11-13T19:00:07.093Z,15.00
2022-11-13T19:02:52.985Z,15.00
2022-11-13T19:05:44.545Z,15.00
2022-11-13T19:08:32.044Z,14.90
2022-11-13T19:11:19.469Z,14.90
2022-11-13T19:14:08.275Z,14.80
2022-11-13T19:16:54.784Z,14.80
2022-11-13T19:19:42.518Z,14.80
2022-11-13T19:22:29.033Z,14.80
2022-11-13T19:25:15.589Z,14.70
2022-11-13T19:28:02.989Z,14.70
2022-11-13T19:30:54.702Z,14.70
2022-11-13T19:33:41.929Z,14.70
2022-11-13T19:36:29.847Z,14.50
2022-11-13T19:39:17.198Z,14.50
2022-11-13T19:42:03.774Z,14.50
2022-11-13T19:44:50.761Z,14.50
2022-11-13T19:47:39.190Z,14.40
2022-11-13T19:50:25.959Z,14.30
2022-11-13T19:53:14.047Z,14.10
2022-11-13T19:56:00.994Z,14.10
2022-11-13T19:58:48.870Z,14.00
2022-11-13T20:01:36.165Z,14.10
2022-11-13T20:04:24.361Z,14.10
2022-11-13T20:07:11.582Z,14.20
2022-11-13T20:09:58.420Z,14.20
2022-11-13T20:12:46.980Z,14.10
2022-11-13T20:15:33.391Z,14.10
2022-11-13T20:18:19.830Z,14.00
2022-11-13T20:21:08.717Z,14.10
2022-11-13T20:23:56.951Z,14.00
2022-11-13T20:26:43.963Z,14.00
2022-11-13T20:29:32.486Z,14.00
2022-11-13T20:32:18.954Z,14.00
2022-11-13T20:35:06.463Z,14.00
2022-11-13T20:37:54.459Z,14.00
2022-11-13T20:40:41.345Z,14.00
2022-11-13T20:43:27.877Z,14.00
2022-11-13T20:46:15.496Z,14.00
2022-11-13T20:49:05.726Z,13.90
2022-11-13T20:51:56.782Z,13.90
2022-11-13T20:54:44.871Z,13.90
2022-11-13T20:57:34.513Z,13.90
2022-11-13T21:00:24.587Z,13.90
2022-11-13T21:03:10.971Z,13.90
2022-11-13T21:05:58.076Z,13.90
2022-11-13T21:08:48.624Z,13.90
2022-11-13T21:11:36.600Z,13.90
2022-11-13T21:14:22.995Z,13.90
2022-11-13T21:17:09.340Z,13.90
2022-11-13T21:19:57.671Z,13.90
2022-11-13T21:22:44.448Z,13.80
2022-11-13T21:25:31.159Z,13.80
2022-11-13T21:28:23.648Z,13.70
2022-11-13T21:31:14.529Z,13.70
2022-11-13T21:34:01.320Z,13.70
2022-11-13T21:36:47.689Z,13.70
2022-11-13T21:39:34.864Z,13.70
2022-11-13T21:42:21.115Z,13.60
2022-11-13T21:45:10.219Z,13.60
2022-11-13T21:47:57.048Z,13.60
2022-11-13T21:50:43.624Z,13.60
2022-11-13T21:53:30.715Z,13.50
2022-11-13T21:56:17.239Z,13.40
2022-11-13T21:59:04.103Z,13.40
2022-11-13T22:01:52.491Z,13.40
2022-11-13T22:04:39.241Z,13.40
2022-11-13T22:07:25.751Z,13.30
2022-11-13T22:10:12.215Z,13.30
2022-11-13T22:12:58.681Z,13.30
2022-11-13T22:15:45.305Z,13.30
2022-11-13T22:18:34.842Z,13.30
2022-11-13T22:21:22.302Z,13.20
2022-11-13T22:24:09.714Z,13.20
2022-11-13T22:26:56.606Z,13.20
2022-11-13T22:29:43.147Z,13.20
2022-11-13T22:32:30.797Z,13.20
2022-11-13T22:35:19.396Z,13.20
2022-11-13T22:38:05.856Z,13.10
2022-11-13T22:40:52.532Z,13.00
2022-11-13T22:43:46.814Z,13.00
2022-11-13T22:46:34.818Z,13.00
2022-11-13T22:49:21.443Z,13.00
2022-11-13T22:52:09.302Z,13.00
2022-11-13T22:54:55.932Z,13.00
2022-11-13T22:57:42.312Z,13.00
2022-11-13T23:00:29.114Z,12.90
2022-11-13T23:03:15.368Z,12.90
2022-11-13T23:06:03.011Z,12.80
2022-11-13T23:08:51.637Z,12.80
2022-11-13T23:11:39.991Z,12.70
2022-11-13T23:14:26.866Z,12.80
2022-11-13T23:17:13.377Z,12.70
2022-11-13T23:19:59.923Z,12.70
2022-11-13T23:22:46.289Z,12.70
2022-11-13T23:25:35.047Z,12.70
2022-11-13T23:28:21.287Z,12.70
2022-11-13T23:31:08.040Z,12.70
2022-11-13T23:33:54.116Z,12.60
2022-11-13T23:36:46.160Z,12.50
2022-11-13T23:39:33.050Z,12.40
2022-11-13T23:42:39.285Z,12.40
2022-11-13T23:45:27.649Z,12.40
2022-11-13T23:48:13.889Z,12.40
2022-11-13T23:51:01.550Z,12.40
2022-11-13T23:53:48.083Z,12.30
2022-11-13T23:56:35.284Z,12.30
2022-11-13T23:59:22.875Z,12.30
